createdAt,value
2018-08-31T00:05:01.830Z,99.99
2018-08-31T00:05:43.230Z,99.99
2018-08-31T00:06:44.006Z,99.99
2018-08-31T00:07:43.220Z,99.99
2018-08-31T00:08:42.937Z,99.99
2018-08-31T00:09:43.304Z,99.99
2018-08-31T00:10:42.658Z,99.99
2018-08-31T00:11:43.200Z,99.99
2018-08-31T00:13:11.216Z,99.99
2018-08-31T00:14:41.764Z,99.99
2018-08-31T00:15:42.820Z,99.99
2018-08-31T00:16:41.668Z,99.99
2018-08-31T00:17:50.899Z,99.99
2018-08-31T00:19:41.590Z,99.99
2018-08-31T00:20:40.773Z,99.99
2018-08-31T00:21:44.696Z,99.99
2018-08-31T00:22:58.070Z,99.99
2018-08-31T00:23:38.960Z,99.99
2018-08-31T00:25:10.006Z,99.99
2018-08-31T00:27:33.373Z,99.99
2018-08-31T00:28:22.593Z,99.99
2018-08-31T00:30:29.046Z,99.99
2018-08-31T00:38:16.855Z,99.99
2018-08-31T00:42:57.210Z,99.99
2018-08-31T00:45:33.988Z,99.99
2018-08-31T00:48:11.617Z,99.99
2018-08-31T00:49:10.594Z,99.99
2018-08-31T00:50:21.625Z,99.99
2018-08-31T00:51:10.580Z,99.99
2018-08-31T00:52:17.615Z,99.99
2018-08-31T00:53:11.697Z,99.99
2018-08-31T00:54:10.669Z,99.99
2018-08-31T00:55:11.415Z,99.99
2018-08-31T00:56:10.588Z,99.99
2018-08-31T00:57:12.413Z,99.99
2018-08-31T00:58:10.579Z,99.99
2018-08-31T00:59:10.614Z,99.99
2018-08-31T01:00:10.636Z,99.99
2018-08-31T01:01:11.434Z,99.99
2018-08-31T01:02:12.438Z,99.99
2018-08-31T01:03:10.560Z,99.99
2018-08-31T01:04:10.637Z,99.99
2018-08-31T01:05:10.569Z,99.99
2018-08-31T01:06:10.589Z,99.99
2018-08-31T01:07:10.658Z,99.99
2018-08-31T01:08:10.585Z,99.99
2018-08-31T01:09:10.668Z,99.99
2018-08-31T01:10:10.667Z,99.99
2018-08-31T01:11:10.643Z,99.99
2018-08-31T01:12:10.550Z,99.99
2018-08-31T01:13:10.649Z,99.99
2018-08-31T01:14:11.438Z,99.99
2018-08-31T01:15:10.555Z,99.99
2018-08-31T01:16:10.629Z,99.99
2018-08-31T01:17:10.526Z,99.99
2018-08-31T01:18:10.550Z,99.99
2018-08-31T01:19:10.595Z,99.99
2018-08-31T01:20:10.584Z,99.99
2018-08-31T01:21:10.585Z,99.99
2018-08-31T01:22:10.560Z,99.99
2018-08-31T01:23:10.704Z,99.99
2018-08-31T01:24:10.643Z,99.99
2018-08-31T01:25:10.643Z,99.99
2018-08-31T01:26:10.652Z,99.99
2018-08-31T01:27:10.581Z,99.99
2018-08-31T01:28:13.433Z,99.99
2018-08-31T01:29:12.447Z,99.99
2018-08-31T01:30:10.601Z,99.99
2018-08-31T01:31:10.539Z,99.99
2018-08-31T01:32:10.595Z,99.99
2018-08-31T01:33:10.576Z,99.99
2018-08-31T01:34:10.638Z,99.99
2018-08-31T01:35:10.614Z,99.99
2018-08-31T01:36:10.617Z,99.99
2018-08-31T01:37:10.539Z,99.99
2018-08-31T01:38:11.376Z,99.99
2018-08-31T01:39:10.603Z,99.99
2018-08-31T01:40:10.543Z,99.99
2018-08-31T01:41:11.417Z,99.99
2018-08-31T01:42:10.544Z,99.99
2018-08-31T01:43:10.541Z,99.99
2018-08-31T01:44:10.590Z,99.99
2018-08-31T01:45:10.575Z,99.99
2018-08-31T01:46:10.549Z,99.99
2018-08-31T01:47:10.551Z,99.99
2018-08-31T01:48:12.498Z,99.99
2018-08-31T01:49:10.678Z,99.99
2018-08-31T01:50:10.599Z,99.99
2018-08-31T01:51:10.536Z,99.99
2018-08-31T01:52:10.595Z,99.99
2018-08-31T01:53:11.441Z,99.99
2018-08-31T01:54:10.611Z,99.99
2018-08-31T01:55:10.610Z,99.99
2018-08-31T01:56:10.640Z,99.99
2018-08-31T01:57:10.595Z,99.99
2018-08-31T01:58:10.535Z,99.99
2018-08-31T01:59:10.533Z,99.99
2018-08-31T02:00:10.523Z,99.99
2018-08-31T02:01:10.564Z,99.99
2018-08-31T02:02:11.373Z,99.99
2018-08-31T02:03:10.554Z,99.99
2018-08-31T02:04:10.579Z,99.99
2018-08-31T02:05:10.567Z,99.99
2018-08-31T02:06:10.560Z,99.99
2018-08-31T02:07:10.514Z,99.99
2018-08-31T02:08:10.513Z,99.99
2018-08-31T02:09:10.522Z,99.99
2018-08-31T02:10:10.528Z,99.99
2018-08-31T02:11:10.517Z,99.99
2018-08-31T02:12:10.600Z,99.99
2018-08-31T02:13:10.522Z,99.99
2018-08-31T02:14:10.523Z,99.99
2018-08-31T02:15:11.389Z,99.99
2018-08-31T02:16:10.532Z,99.99
2018-08-31T02:17:10.552Z,99.99
2018-08-31T02:18:10.535Z,99.99
2018-08-31T02:19:10.589Z,99.99
2018-08-31T02:20:10.624Z,99.99
2018-08-31T02:21:10.555Z,99.99
2018-08-31T02:22:16.429Z,99.99
2018-08-31T02:23:10.538Z,99.99
2018-08-31T02:24:10.501Z,99.99
2018-08-31T02:25:10.532Z,99.99
2018-08-31T02:26:10.508Z,99.99
2018-08-31T02:27:10.566Z,99.99
2018-08-31T02:28:12.568Z,99.99
2018-08-31T02:29:10.703Z,99.99
2018-08-31T02:30:10.684Z,99.99
2018-08-31T02:31:10.752Z,99.99
2018-08-31T02:32:10.579Z,99.99
2018-08-31T02:33:27.960Z,99.99
2018-08-31T02:34:12.504Z,99.99
2018-08-31T02:35:10.564Z,99.99
2018-08-31T02:36:12.424Z,99.99
2018-08-31T02:37:10.628Z,99.99
2018-08-31T02:38:12.562Z,99.99
2018-08-31T02:39:10.738Z,99.99
2018-08-31T02:40:10.640Z,99.99
2018-08-31T02:41:12.566Z,99.99
2018-08-31T02:42:10.474Z,99.99
2018-08-31T02:43:12.586Z,99.99
2018-08-31T02:44:11.693Z,99.99
2018-08-31T02:45:12.406Z,99.99
2018-08-31T02:46:10.488Z,99.99
2018-08-31T02:47:10.496Z,99.99
2018-08-31T02:48:10.527Z,99.99
2018-08-31T02:49:10.533Z,99.99
2018-08-31T02:50:12.530Z,99.99
2018-08-31T02:51:10.470Z,99.99
2018-08-31T02:52:10.488Z,99.99
2018-08-31T02:53:10.524Z,99.99
2018-08-31T02:54:13.520Z,99.99
2018-08-31T02:55:10.530Z,99.99
2018-08-31T02:56:10.557Z,99.99
2018-08-31T02:57:10.572Z,99.99
2018-08-31T02:58:13.443Z,99.99
2018-08-31T02:59:12.498Z,99.99
2018-08-31T03:00:10.580Z,99.99
2018-08-31T03:01:13.458Z,99.99
2018-08-31T03:02:12.525Z,99.99
2018-08-31T03:03:12.478Z,99.99
2018-08-31T03:04:12.498Z,99.99
2018-08-31T03:05:10.581Z,99.99
2018-08-31T03:06:13.403Z,99.99
2018-08-31T03:07:12.439Z,99.99
2018-08-31T03:08:10.488Z,99.99
2018-08-31T03:10:49.795Z,99.99
2018-08-31T03:11:47.795Z,99.99
2018-08-31T03:12:47.781Z,99.99
2018-08-31T03:13:47.747Z,99.99
2018-08-31T03:14:47.897Z,99.99
2018-08-31T03:15:47.830Z,99.99
2018-08-31T03:16:49.884Z,99.99
2018-08-31T03:17:47.885Z,99.99
2018-08-31T03:18:50.019Z,99.99
2018-08-31T03:19:47.741Z,99.99
2018-08-31T03:20:47.745Z,99.99
2018-08-31T03:21:47.740Z,99.99
2018-08-31T03:22:47.741Z,99.99
2018-08-31T03:23:47.740Z,99.99
2018-08-31T03:24:47.734Z,99.99
2018-08-31T03:25:47.732Z,99.99
2018-08-31T03:26:47.736Z,99.99
2018-08-31T03:27:47.730Z,99.99
2018-08-31T03:28:47.739Z,99.99
2018-08-31T03:29:47.735Z,99.99
2018-08-31T03:30:47.732Z,99.99
2018-08-31T03:31:47.725Z,99.99
2018-08-31T03:32:47.732Z,99.99
2018-08-31T03:33:47.773Z,99.99
2018-08-31T03:34:47.721Z,99.99
2018-08-31T03:35:47.727Z,99.99
2018-08-31T03:36:47.740Z,99.99
2018-08-31T03:37:47.720Z,99.99
2018-08-31T03:38:47.728Z,99.99
2018-08-31T03:39:47.717Z,99.99
2018-08-31T03:40:47.712Z,99.99
2018-08-31T03:41:47.730Z,99.99
2018-08-31T03:42:47.714Z,99.99
2018-08-31T03:43:47.744Z,99.99
2018-08-31T03:44:47.712Z,99.99
2018-08-31T03:45:47.706Z,99.99
2018-08-31T03:46:47.705Z,99.99
2018-08-31T03:47:47.713Z,99.99
2018-08-31T03:48:47.726Z,99.99
2018-08-31T03:49:47.704Z,99.99
2018-08-31T03:50:47.703Z,99.99
2018-08-31T03:51:47.709Z,99.99
2018-08-31T03:52:47.698Z,99.99
2018-08-31T03:53:47.695Z,99.99
2018-08-31T03:54:49.239Z,99.99
2018-08-31T03:55:54.900Z,99.99
2018-08-31T03:57:43.678Z,99.99
2018-08-31T03:58:41.978Z,99.99
2018-08-31T03:59:41.747Z,99.99
2018-08-31T04:00:41.713Z,99.99
2018-08-31T04:01:41.679Z,99.99
2018-08-31T04:02:41.696Z,99.99
2018-08-31T04:03:41.759Z,99.99
2018-08-31T04:04:42.052Z,99.99
2018-08-31T04:05:42.739Z,99.99
2018-08-31T04:06:49.685Z,99.99
2018-08-31T04:08:35.577Z,99.99
2018-08-31T04:09:35.498Z,99.99
2018-08-31T04:12:04.796Z,99.99
2018-08-31T04:12:56.276Z,99.99
2018-08-31T04:13:56.247Z,99.99
2018-08-31T04:21:36.734Z,99.99
2018-08-31T04:24:53.263Z,99.99
2018-08-31T04:25:51.385Z,99.99
2018-08-31T04:26:51.194Z,99.99
2018-08-31T04:27:53.164Z,99.99
2018-08-31T04:28:54.172Z,99.99
2018-08-31T04:29:51.169Z,99.99
2018-08-31T04:30:54.394Z,99.99
2018-08-31T04:31:54.132Z,99.99
2018-08-31T04:32:51.164Z,99.99
2018-08-31T04:33:51.263Z,99.99
2018-08-31T04:34:54.272Z,99.99
2018-08-31T04:35:51.161Z,99.99
2018-08-31T04:36:55.194Z,99.99
2018-08-31T04:37:51.176Z,99.99
2018-08-31T04:38:51.222Z,99.99
2018-08-31T04:39:52.225Z,99.99
2018-08-31T04:40:53.343Z,99.99
2018-08-31T04:51:25.005Z,99.99
2018-08-31T04:52:02.768Z,99.99
2018-08-31T05:00:07.295Z,99.99
2018-08-31T05:08:39.271Z,99.99
2018-08-31T05:09:40.009Z,99.99
2018-08-31T05:10:39.193Z,99.99
2018-08-31T05:11:39.195Z,99.99
2018-08-31T05:12:39.449Z,99.99
2018-08-31T05:13:39.143Z,99.99
2018-08-31T05:14:40.020Z,99.99
2018-08-31T05:15:39.290Z,99.99
2018-08-31T05:16:39.152Z,99.99
2018-08-31T05:17:39.126Z,99.99
2018-08-31T05:18:39.145Z,99.99
2018-08-31T05:19:40.130Z,99.99
2018-08-31T05:20:39.143Z,99.99
2018-08-31T05:21:41.181Z,99.99
2018-08-31T05:22:41.645Z,99.99
2018-08-31T05:23:40.066Z,99.99
2018-08-31T05:25:00.384Z,99.99
2018-08-31T05:25:39.231Z,99.99
2018-08-31T05:30:18.324Z,99.99
2018-08-31T05:31:39.966Z,99.99
2018-08-31T05:32:17.973Z,99.99
2018-08-31T05:33:18.155Z,99.99
2018-08-31T05:37:24.637Z,99.99
2018-08-31T05:38:24.510Z,99.99
2018-08-31T05:39:24.431Z,99.99
2018-08-31T05:40:24.478Z,99.99
2018-08-31T05:41:24.617Z,99.99
2018-08-31T05:43:45.313Z,99.99
2018-08-31T05:44:45.255Z,99.99
2018-08-31T05:45:47.350Z,99.99
2018-08-31T05:46:45.174Z,99.99
2018-08-31T05:47:45.315Z,99.99
2018-08-31T05:48:45.384Z,99.99
2018-08-31T05:49:45.183Z,99.99
2018-08-31T05:50:45.209Z,99.99
2018-08-31T05:51:45.225Z,99.99
2018-08-31T05:52:45.784Z,99.99
2018-08-31T05:53:45.219Z,99.99
2018-08-31T05:54:45.162Z,99.99
2018-08-31T05:55:45.714Z,99.99
2018-08-31T05:56:45.845Z,99.99
2018-08-31T05:57:45.216Z,99.99
2018-08-31T05:58:45.726Z,99.99
2018-08-31T05:59:45.332Z,99.99
2018-08-31T06:00:47.747Z,99.99
2018-08-31T06:01:45.172Z,99.99
2018-08-31T06:02:45.213Z,99.99
2018-08-31T06:03:45.152Z,99.99
2018-08-31T06:04:45.812Z,99.99
2018-08-31T06:05:45.203Z,99.99
2018-08-31T06:06:45.154Z,99.99
2018-08-31T06:07:45.174Z,99.99
2018-08-31T06:08:45.154Z,99.99
2018-08-31T06:09:45.145Z,99.99
2018-08-31T06:10:45.151Z,99.99
2018-08-31T06:11:45.206Z,99.99
2018-08-31T06:12:45.150Z,99.99
2018-08-31T06:13:45.169Z,99.99
2018-08-31T06:14:45.199Z,99.99
2018-08-31T06:15:45.157Z,99.99
2018-08-31T06:16:45.147Z,99.99
2018-08-31T06:17:45.158Z,99.99
2018-08-31T06:18:45.146Z,99.99
2018-08-31T06:19:45.142Z,99.99
2018-08-31T06:20:45.155Z,99.99
2018-08-31T06:21:45.177Z,99.99
2018-08-31T06:22:45.157Z,99.99
2018-08-31T06:23:45.145Z,99.99
2018-08-31T06:24:45.179Z,99.99
2018-08-31T06:25:45.236Z,99.99
2018-08-31T06:26:46.704Z,99.99
2018-08-31T06:27:45.161Z,99.99
2018-08-31T06:28:45.185Z,99.99
2018-08-31T06:29:45.220Z,99.99
2018-08-31T06:30:45.252Z,99.99
2018-08-31T06:31:45.196Z,99.99
2018-08-31T06:32:45.394Z,99.99
2018-08-31T06:33:46.427Z,99.99
2018-08-31T06:34:45.794Z,99.99
2018-08-31T06:35:45.403Z,99.99
2018-08-31T06:36:46.793Z,99.99
2018-08-31T06:37:45.171Z,99.99
2018-08-31T06:38:45.753Z,99.99
2018-08-31T06:39:45.810Z,99.99
2018-08-31T06:40:45.227Z,99.99
2018-08-31T06:41:45.920Z,99.99
2018-08-31T06:42:45.868Z,99.99
2018-08-31T06:44:15.859Z,99.99
2018-08-31T06:45:40.814Z,99.99
2018-08-31T06:46:40.795Z,99.99
2018-08-31T06:47:40.712Z,99.99
2018-08-31T06:48:40.649Z,99.99
2018-08-31T06:49:40.719Z,99.99
2018-08-31T06:50:40.681Z,99.99
2018-08-31T06:51:40.646Z,99.99
2018-08-31T06:52:40.662Z,99.99
2018-08-31T06:53:40.644Z,99.99
2018-08-31T06:54:40.644Z,99.99
2018-08-31T06:55:40.851Z,99.99
2018-08-31T06:56:41.829Z,99.99
2018-08-31T06:57:40.702Z,99.99
2018-08-31T06:58:40.677Z,99.99
2018-08-31T06:59:42.668Z,99.99
2018-08-31T07:00:40.650Z,99.99
2018-08-31T07:01:48.874Z,99.99
2018-08-31T07:03:47.497Z,99.99
2018-08-31T07:17:09.098Z,99.99
2018-08-31T07:18:05.459Z,99.99
2018-08-31T07:41:33.461Z,99.99
2018-08-31T07:42:34.806Z,99.99
2018-08-31T07:45:37.264Z,99.99
2018-08-31T07:46:38.981Z,99.99
2018-08-31T09:13:24.772Z,73.38
2018-08-31T09:14:47.629Z,72.65
2018-08-31T09:17:10.220Z,72.39
2018-08-31T09:18:13.579Z,72.39
2018-08-31T09:22:49.644Z,69.47
2018-08-31T09:23:49.139Z,68.76
2018-08-31T09:25:42.213Z,70.90
2018-08-31T09:26:42.075Z,73.27
2018-08-31T09:29:29.612Z,76.79
2018-08-31T09:30:29.413Z,76.79
2018-08-31T09:32:46.444Z,76.94
2018-08-31T09:33:23.291Z,77.80
2018-08-31T09:34:35.360Z,77.90
2018-08-31T09:36:20.783Z,79.30
2018-08-31T09:37:19.230Z,80.83
2018-08-31T09:38:19.301Z,80.11
2018-08-31T09:39:19.242Z,80.64
2018-08-31T09:40:42.961Z,80.45
2018-08-31T09:43:08.842Z,80.01
2018-08-31T09:43:16.317Z,80.01
2018-08-31T09:44:16.308Z,79.53
2018-08-31T09:50:08.694Z,77.46
2018-08-31T09:52:57.931Z,75.57
2018-08-31T10:05:24.927Z,72.37
2018-08-31T10:06:24.426Z,71.80
2018-08-31T10:07:24.533Z,72.50
2018-08-31T10:08:24.535Z,71.64
2018-08-31T10:09:24.413Z,71.06
2018-08-31T10:10:24.439Z,70.36
2018-08-31T10:11:24.413Z,71.35
2018-08-31T10:12:24.440Z,71.98
2018-08-31T10:18:57.825Z,70.23
2018-08-31T10:19:57.581Z,70.23
2018-08-31T10:20:57.410Z,70.72
2018-08-31T10:24:38.073Z,71.91
2018-08-31T10:25:06.915Z,70.94
2018-08-31T10:27:43.092Z,69.24
2018-08-31T10:30:13.031Z,68.03
2018-08-31T10:31:13.052Z,68.03
2018-08-31T10:33:13.492Z,66.58
2018-08-31T10:34:06.085Z,66.39
2018-08-31T10:35:06.076Z,66.62
2018-08-31T10:36:06.043Z,66.33
2018-08-31T10:37:06.044Z,65.46
2018-08-31T10:38:06.198Z,64.69
2018-08-31T10:39:06.141Z,63.79
2018-08-31T10:40:06.091Z,62.96
2018-08-31T10:41:06.947Z,62.29
2018-08-31T10:42:06.109Z,62.48
2018-08-31T10:43:06.067Z,62.35
2018-08-31T10:44:06.121Z,63.67
2018-08-31T10:45:06.090Z,64.73
2018-08-31T10:46:06.088Z,64.82
2018-08-31T10:47:06.110Z,64.82
2018-08-31T10:48:06.095Z,64.15
2018-08-31T10:49:06.135Z,65.78
2018-08-31T10:50:06.098Z,65.59
2018-08-31T10:51:06.103Z,66.97
2018-08-31T10:52:06.135Z,65.66
2018-08-31T10:53:06.163Z,63.92
2018-08-31T10:54:06.113Z,62.80
2018-08-31T10:55:06.120Z,63.18
2018-08-31T10:56:06.124Z,59.62
2018-08-31T10:57:06.125Z,59.72
2018-08-31T10:58:06.131Z,60.58
2018-08-31T10:59:06.137Z,59.72
2018-08-31T11:00:06.165Z,59.55
2018-08-31T11:01:06.147Z,59.27
2018-08-31T11:02:06.155Z,59.36
2018-08-31T11:03:06.154Z,57.50
2018-08-31T11:04:06.161Z,57.69
2018-08-31T11:05:06.162Z,59.14
2018-08-31T11:06:06.174Z,59.14
2018-08-31T11:07:06.172Z,59.17
2018-08-31T11:08:06.188Z,59.45
2018-08-31T11:09:06.182Z,59.36
2018-08-31T11:10:06.191Z,58.81
2018-08-31T11:11:06.193Z,57.85
2018-08-31T11:12:06.210Z,56.76
2018-08-31T11:13:06.247Z,57.60
2018-08-31T11:14:06.209Z,58.24
2018-08-31T11:15:06.216Z,58.95
2018-08-31T11:16:06.223Z,59.49
2018-08-31T11:17:06.229Z,59.40
2018-08-31T11:18:06.230Z,59.59
2018-08-31T11:19:06.238Z,59.47
2018-08-31T11:20:06.235Z,60.17
2018-08-31T11:21:06.241Z,59.49
2018-08-31T11:22:06.246Z,59.49
2018-08-31T11:23:06.255Z,59.88
2018-08-31T11:24:06.258Z,59.62
2018-08-31T11:25:06.262Z,58.82
2018-08-31T11:26:06.280Z,57.89
2018-08-31T11:27:06.271Z,58.08
2018-08-31T11:28:06.277Z,59.62
2018-08-31T11:29:06.281Z,59.59
2018-08-31T11:30:06.283Z,59.97
2018-08-31T11:31:06.291Z,60.75
2018-08-31T11:32:06.298Z,61.49
2018-08-31T11:33:06.300Z,62.54
2018-08-31T11:34:06.305Z,63.18
2018-08-31T11:35:06.312Z,64.73
2018-08-31T11:36:06.318Z,64.63
2018-08-31T11:37:06.322Z,65.50
2018-08-31T11:38:06.323Z,65.50
2018-08-31T11:39:06.330Z,65.01
2018-08-31T11:40:06.335Z,65.50
2018-08-31T11:41:06.338Z,65.94
2018-08-31T11:42:06.344Z,65.75
2018-08-31T11:43:06.348Z,67.00
2018-08-31T11:44:06.352Z,66.81
2018-08-31T11:45:06.358Z,66.14
2018-08-31T11:46:06.363Z,67.00
2018-08-31T11:47:06.366Z,66.71
2018-08-31T11:48:06.371Z,66.61
2018-08-31T11:49:06.376Z,66.33
2018-08-31T11:50:06.380Z,66.33
2018-08-31T11:51:06.384Z,67.00
2018-08-31T11:52:06.390Z,66.61
2018-08-31T11:53:06.394Z,66.36
2018-08-31T11:54:06.401Z,65.81
2018-08-31T11:55:06.412Z,63.60
2018-08-31T11:56:06.409Z,62.45
2018-08-31T11:57:06.411Z,62.35
2018-08-31T11:58:06.415Z,62.93
2018-08-31T11:59:06.443Z,61.61
2018-08-31T12:00:06.465Z,61.13
2018-08-31T12:01:06.483Z,62.19
2018-08-31T12:02:06.564Z,61.83
2018-08-31T12:03:06.441Z,60.20
2018-08-31T12:04:06.449Z,59.81
2018-08-31T12:05:06.502Z,59.81
2018-08-31T12:06:06.484Z,59.43
2018-08-31T12:07:06.878Z,59.91
2018-08-31T12:08:06.477Z,59.43
2018-08-31T12:09:06.469Z,58.95
2018-08-31T12:10:06.518Z,59.43
2018-08-31T12:11:06.472Z,60.36
2018-08-31T12:12:06.477Z,60.17
2018-08-31T12:13:06.484Z,59.91
2018-08-31T12:14:06.495Z,59.59
2018-08-31T12:15:06.516Z,60.00
2018-08-31T12:16:06.496Z,60.10
2018-08-31T12:17:06.502Z,60.10
2018-08-31T12:18:06.512Z,59.17
2018-08-31T12:19:06.524Z,58.69
2018-08-31T12:20:06.621Z,57.79
2018-08-31T12:21:06.548Z,58.78
2018-08-31T12:22:06.529Z,59.27
2018-08-31T12:23:06.531Z,58.88
2018-08-31T12:24:06.537Z,58.14
2018-08-31T12:25:06.548Z,57.82
2018-08-31T12:26:06.641Z,56.59
2018-08-31T12:27:06.559Z,56.76
2018-08-31T12:28:06.586Z,56.18
2018-08-31T12:29:06.580Z,56.37
2018-08-31T12:30:06.629Z,55.63
2018-08-31T12:31:06.571Z,55.15
2018-08-31T12:32:06.576Z,54.69
2018-08-31T12:33:06.581Z,54.24
2018-08-31T12:34:06.584Z,53.56
2018-08-31T12:35:06.591Z,52.86
2018-08-31T12:36:06.621Z,53.61
2018-08-31T12:37:06.597Z,54.96
2018-08-31T12:38:06.604Z,55.92
2018-08-31T12:39:06.610Z,56.66
2018-08-31T12:40:06.616Z,55.51
2018-08-31T12:41:06.620Z,56.76
2018-08-31T12:42:06.625Z,56.47
2018-08-31T12:43:06.628Z,56.85
2018-08-31T12:44:06.676Z,57.14
2018-08-31T12:45:06.644Z,57.05
2018-08-31T12:46:06.647Z,56.82
2018-08-31T12:47:06.650Z,57.40
2018-08-31T12:48:06.654Z,57.12
2018-08-31T12:49:06.658Z,57.28
2018-08-31T12:50:06.677Z,57.09
2018-08-31T12:51:06.706Z,57.35
2018-08-31T12:52:06.676Z,58.76
2018-08-31T12:53:06.682Z,59.05
2018-08-31T12:54:06.694Z,58.76
2018-08-31T12:55:06.687Z,59.34
2018-08-31T12:56:06.693Z,59.99
2018-08-31T12:57:06.699Z,61.61
2018-08-31T12:58:06.704Z,60.85
2018-08-31T12:59:06.708Z,60.94
2018-08-31T13:00:06.766Z,61.14
2018-08-31T13:01:06.737Z,60.94
2018-08-31T13:02:06.726Z,59.89
2018-08-31T13:03:06.752Z,60.46
2018-08-31T13:04:06.752Z,60.85
2018-08-31T13:05:06.742Z,61.52
2018-08-31T13:06:06.738Z,60.46
2018-08-31T13:07:06.829Z,61.52
2018-08-31T13:08:06.750Z,60.85
2018-08-31T13:09:06.751Z,59.99
2018-08-31T13:10:06.759Z,59.79
2018-08-31T13:11:06.885Z,59.50
2018-08-31T13:12:06.794Z,60.17
2018-08-31T13:13:06.798Z,59.69
2018-08-31T13:14:06.776Z,59.89
2018-08-31T13:15:06.842Z,60.14
2018-08-31T13:16:06.797Z,60.53
2018-08-31T13:17:06.784Z,60.82
2018-08-31T13:18:06.791Z,60.63
2018-08-31T13:19:06.819Z,60.34
2018-08-31T13:20:06.806Z,60.85
2018-08-31T13:21:06.799Z,60.66
2018-08-31T13:22:06.813Z,59.69
2018-08-31T13:23:06.808Z,60.94
2018-08-31T13:24:06.813Z,59.89
2018-08-31T13:25:06.906Z,60.27
2018-08-31T13:26:06.821Z,59.99
2018-08-31T13:27:06.855Z,59.79
2018-08-31T13:28:06.855Z,60.27
2018-08-31T13:29:06.841Z,59.79
2018-08-31T13:30:06.835Z,59.22
2018-08-31T13:31:06.876Z,59.31
2018-08-31T13:32:06.867Z,58.83
2018-08-31T13:33:06.889Z,59.31
2018-08-31T13:34:06.885Z,59.12
2018-08-31T13:35:06.853Z,59.79
2018-08-31T13:36:06.859Z,60.08
2018-08-31T13:37:06.865Z,59.69
2018-08-31T13:38:06.869Z,60.27
2018-08-31T13:39:06.880Z,59.99
2018-08-31T13:40:06.894Z,59.41
2018-08-31T13:41:06.879Z,58.73
2018-08-31T13:42:06.883Z,59.12
2018-08-31T13:43:06.887Z,59.12
2018-08-31T13:44:06.954Z,60.27
2018-08-31T13:45:06.893Z,59.31
2018-08-31T13:46:06.923Z,59.41
2018-08-31T13:47:06.918Z,59.31
2018-08-31T13:48:06.971Z,59.47
2018-08-31T13:49:06.907Z,59.95
2018-08-31T13:50:06.911Z,59.38
2018-08-31T13:51:06.920Z,60.34
2018-08-31T13:52:06.920Z,60.14
2018-08-31T13:53:06.921Z,59.66
2018-08-31T13:54:06.976Z,59.57
2018-08-31T13:55:06.933Z,60.14
2018-08-31T13:56:06.954Z,59.86
2018-08-31T13:57:06.940Z,59.86
2018-08-31T13:58:06.984Z,59.95
2018-08-31T13:59:06.974Z,59.86
2018-08-31T14:00:06.949Z,60.14
2018-08-31T14:01:06.956Z,60.05
2018-08-31T14:02:06.962Z,59.95
2018-08-31T14:03:06.961Z,59.86
2018-08-31T14:04:06.980Z,59.57
2018-08-31T14:05:06.988Z,59.50
2018-08-31T14:06:06.976Z,58.83
2018-08-31T14:07:06.977Z,59.22
2018-08-31T14:08:06.997Z,58.83
2018-08-31T14:09:06.999Z,59.12
2018-08-31T14:10:07.081Z,58.73
2018-08-31T14:11:06.998Z,57.68
2018-08-31T14:12:07.051Z,57.80
2018-08-31T14:13:06.996Z,56.65
2018-08-31T14:14:07.001Z,56.45
2018-08-31T14:15:07.007Z,56.93
2018-08-31T14:16:07.018Z,57.22
2018-08-31T14:17:07.124Z,56.55
2018-08-31T14:18:07.076Z,56.74
2018-08-31T14:19:07.024Z,56.84
2018-08-31T14:20:07.027Z,55.88
2018-08-31T14:21:07.062Z,55.68
2018-08-31T14:22:07.051Z,54.24
2018-08-31T14:23:07.034Z,54.43
2018-08-31T14:24:07.061Z,54.63
2018-08-31T14:25:07.113Z,54.63
2018-08-31T14:26:07.048Z,55.59
2018-08-31T14:27:07.052Z,55.56
2018-08-31T14:28:07.056Z,55.76
2018-08-31T14:29:07.061Z,57.68
2018-08-31T14:30:07.162Z,56.62
2018-08-31T14:31:07.973Z,57.68
2018-08-31T14:32:07.101Z,57.68
2018-08-31T14:33:07.079Z,57.68
2018-08-31T14:34:07.207Z,57.65
2018-08-31T14:35:07.083Z,58.64
2018-08-31T14:36:07.087Z,58.64
2018-08-31T14:37:07.097Z,58.25
2018-08-31T14:38:07.126Z,58.64
2018-08-31T14:39:07.097Z,58.47
2018-08-31T14:40:07.102Z,58.47
2018-08-31T14:41:07.106Z,57.99
2018-08-31T14:42:07.115Z,58.47
2018-08-31T14:43:07.117Z,57.99
2018-08-31T14:44:07.154Z,57.83
2018-08-31T14:45:07.120Z,56.10
2018-08-31T14:46:07.125Z,54.56
2018-08-31T14:47:07.130Z,54.56
2018-08-31T14:48:07.838Z,55.90
2018-08-31T14:49:07.714Z,55.33
2018-08-31T14:50:07.144Z,55.30
2018-08-31T14:51:07.269Z,55.59
2018-08-31T14:52:07.297Z,56.26
2018-08-31T14:53:07.337Z,56.74
2018-08-31T14:54:07.187Z,55.88
2018-08-31T14:55:07.178Z,56.26
2018-08-31T14:56:07.231Z,56.07
2018-08-31T14:57:07.175Z,55.78
2018-08-31T14:58:07.180Z,56.36
2018-08-31T14:59:07.257Z,56.55
2018-08-31T15:00:07.184Z,56.71
2018-08-31T15:01:07.262Z,56.62
2018-08-31T15:02:07.236Z,56.93
2018-08-31T15:03:07.205Z,56.71
2018-08-31T15:04:07.199Z,55.66
2018-08-31T15:05:07.240Z,55.76
2018-08-31T15:06:07.206Z,56.23
2018-08-31T15:07:07.211Z,56.62
2018-08-31T15:08:07.215Z,57.00
2018-08-31T15:09:07.218Z,57.48
2018-08-31T15:10:07.287Z,57.48
2018-08-31T15:11:07.227Z,57.29
2018-08-31T15:12:07.267Z,56.91
2018-08-31T15:13:07.386Z,57.58
2018-08-31T15:14:07.326Z,56.71
2018-08-31T15:15:07.500Z,57.20
2018-08-31T15:16:14.492Z,57.00
2018-08-31T15:18:11.761Z,56.62
2018-08-31T15:19:04.615Z,57.10
2018-08-31T15:20:04.612Z,57.20
2018-08-31T15:21:04.568Z,57.77
2018-08-31T15:22:04.592Z,57.10
2018-08-31T15:23:04.588Z,56.71
2018-08-31T15:24:04.632Z,56.71
2018-08-31T15:25:04.594Z,56.04
2018-08-31T15:26:04.603Z,55.27
2018-08-31T15:27:04.621Z,55.94
2018-08-31T15:28:04.595Z,56.23
2018-08-31T15:29:04.631Z,56.30
2018-08-31T15:30:04.619Z,55.73
2018-08-31T15:31:04.614Z,56.40
2018-08-31T15:32:04.675Z,56.68
2018-08-31T15:33:04.745Z,57.17
2018-08-31T15:34:11.777Z,57.26
2018-08-31T15:38:13.300Z,58.64
2018-08-31T15:39:13.269Z,57.48
2018-08-31T15:41:07.037Z,57.22
2018-08-31T15:42:07.033Z,55.88
2018-08-31T15:44:00.710Z,55.78
2018-08-31T15:45:00.482Z,55.68
2018-08-31T15:46:00.514Z,55.20
2018-08-31T15:47:00.474Z,54.34
2018-08-31T15:48:00.475Z,53.47
2018-08-31T15:49:00.480Z,54.82
2018-08-31T15:50:00.537Z,54.82
2018-08-31T15:51:00.496Z,54.53
2018-08-31T15:52:00.491Z,54.72
2018-08-31T15:53:00.522Z,54.43
2018-08-31T15:54:00.503Z,54.53
2018-08-31T15:55:01.436Z,54.72
2018-08-31T15:56:00.544Z,55.49
2018-08-31T15:57:00.510Z,55.66
2018-08-31T15:58:00.538Z,55.40
2018-08-31T15:59:00.524Z,55.27
2018-08-31T16:00:00.523Z,55.59
2018-08-31T16:01:00.528Z,55.40
2018-08-31T16:02:00.555Z,55.49
2018-08-31T16:03:00.539Z,55.88
2018-08-31T16:04:00.540Z,55.20
2018-08-31T16:05:00.546Z,54.72
2018-08-31T16:06:00.555Z,55.37
2018-08-31T16:07:00.557Z,55.40
2018-08-31T16:08:00.555Z,55.27
2018-08-31T16:09:00.559Z,55.56
2018-08-31T16:10:00.558Z,55.37
2018-08-31T16:11:00.572Z,55.85
2018-08-31T16:12:00.568Z,55.85
2018-08-31T16:13:00.586Z,55.56
2018-08-31T16:14:00.577Z,55.94
2018-08-31T16:15:00.582Z,56.23
2018-08-31T16:16:00.594Z,55.85
2018-08-31T16:17:00.590Z,56.23
2018-08-31T16:18:00.653Z,55.37
2018-08-31T16:19:00.656Z,55.94
2018-08-31T16:20:00.599Z,56.21
2018-08-31T16:21:00.702Z,55.94
2018-08-31T16:22:00.605Z,56.40
2018-08-31T16:23:00.610Z,55.94
2018-08-31T16:24:00.625Z,55.82
2018-08-31T16:25:00.618Z,55.73
2018-08-31T16:26:00.635Z,55.34
2018-08-31T16:27:00.627Z,55.63
2018-08-31T16:28:00.630Z,55.44
2018-08-31T16:29:00.641Z,55.53
2018-08-31T16:30:00.637Z,55.63
2018-08-31T16:31:00.639Z,56.11
2018-08-31T16:32:08.978Z,55.99
2018-08-31T16:34:10.161Z,56.76
2018-08-31T16:34:54.683Z,56.98
2018-08-31T16:35:54.619Z,56.95
2018-08-31T16:36:54.610Z,57.65
2018-08-31T16:37:54.615Z,57.45
2018-08-31T16:38:54.640Z,57.07
2018-08-31T16:39:54.641Z,57.43
2018-08-31T16:40:54.688Z,57.26
2018-08-31T16:41:54.627Z,56.78
2018-08-31T16:42:54.630Z,57.75
2018-08-31T16:43:54.668Z,58.51
2018-08-31T16:45:02.175Z,57.36
2018-08-31T16:46:55.440Z,57.07
2018-08-31T16:47:48.213Z,57.75
2018-08-31T16:49:41.272Z,58.03
2018-08-31T16:50:41.248Z,57.45
2018-08-31T16:52:34.216Z,57.55
2018-08-31T16:53:35.772Z,57.93
2018-08-31T16:55:27.292Z,57.26
2018-08-31T16:56:27.545Z,58.03